Main page
METAR-TAF:

METAR-TAF

Airports :

Warsaw, Poland

Warsaw Chopin Airport

latitude: 52-10N, longitude: 020-58E, elevation: 106 m

Current weather observation

The report was made 32 minutes ago, at 22:30 UTC
Wind 5 kt from the West
Temperature 13°C
Humidity 94%
Pressure 1016 hPa
Visibility 10 km or more
no clouds below 1500 m and no cumulonimbus

METAR: EPWA 232230Z 27005KT CAVOK 13/12 Q1016 NOSIG

Time: 01:02 (23:02 UTC)

Forecast

The report was made 5 hours and 32 minutes ago, at 17:30 UTC
Forecast valid from 23 at 18 UTC to 24 at 18 UTC
Wind 8 kt from the West
Visibility 10 km or more
no clouds below 1500 m and no cumulonimbus
Becoming
from 23 at 21 UTC to 23 at 24 UTC
Visibility: 4000 m
mist
Probability 40%
from 24 at 02 UTC to 24 at 07 UTC
Visibility: 1200 m
Overcast at a height of 200 ft
mist
Becoming
from 24 at 07 UTC to 24 at 09 UTC
Visibility 10 km or more

TAF: EPWA 231730Z 2318/2418 27008KT CAVOK BECMG 2321/2324 4000 BR PROB40 2402/2407 1200 BR OVC002 BECMG 2407/2409 9999

Weather observations and forecasts of more than 4000 airports (METAR and TAF reports).

The available stations are represented by yellow and red dots on the map.

Hover mouse over dot to see the name of the station.

Then click to see weather observations and forecasts.

To change the map : click on the green buttons with a black cross to zoom in, on the green button with a dash to zoom out, or on the green arrows for adjacent maps.


METAR-TAF: